createdAt,value
2022-11-02T00:01:25.762Z,89.50
2022-11-02T00:03:52.605Z,89.40
2022-11-02T00:06:19.469Z,89.40
2022-11-02T00:08:46.424Z,89.40
2022-11-02T00:11:13.146Z,89.30
2022-11-02T00:13:39.980Z,89.30
2022-11-02T00:16:11.555Z,89.30
2022-11-02T00:18:38.950Z,89.30
2022-11-02T00:21:06.245Z,89.30
2022-11-02T00:23:33.587Z,89.50
2022-11-02T00:26:02.780Z,89.70
2022-11-02T00:28:30.922Z,89.80
2022-11-02T00:30:58.038Z,89.90
2022-11-02T00:33:25.041Z,89.60
2022-11-02T00:35:52.675Z,89.60
2022-11-02T00:38:19.631Z,89.70
2022-11-02T00:40:46.398Z,89.90
2022-11-02T00:43:13.468Z,89.90
2022-11-02T00:45:40.504Z,89.90
2022-11-02T00:48:07.541Z,90.00
2022-11-02T00:50:34.641Z,90.00
2022-11-02T00:53:01.429Z,89.90
2022-11-02T00:55:28.201Z,90.00
2022-11-02T00:57:55.019Z,89.90
2022-11-02T01:00:21.796Z,89.80
2022-11-02T01:02:48.631Z,89.90
2022-11-02T01:07:42.637Z,90.00
2022-11-02T01:10:10.604Z,90.10
2022-11-02T01:12:38.776Z,90.20
2022-11-02T01:15:08.089Z,90.20
2022-11-02T01:17:34.973Z,90.30
2022-11-02T01:20:01.891Z,90.20
2022-11-02T01:22:28.619Z,90.40
2022-11-02T01:27:22.620Z,90.70
2022-11-02T01:29:49.415Z,90.50
2022-11-02T01:32:16.249Z,90.70
2022-11-02T01:34:43.485Z,90.70
2022-11-02T01:37:10.751Z,90.80
2022-11-02T01:39:37.471Z,91.20
2022-11-02T01:42:04.434Z,91.50
2022-11-02T01:44:33.706Z,91.60
2022-11-02T01:47:05.870Z,91.80
2022-11-02T01:49:36.619Z,91.70
2022-11-02T01:52:09.954Z,91.70
2022-11-02T01:54:42.332Z,92.40
2022-11-02T01:57:14.904Z,93.40
2022-11-02T01:59:52.116Z,93.30
2022-11-02T02:02:22.303Z,93.60
2022-11-02T02:04:53.758Z,93.80
2022-11-02T02:07:24.300Z,94.00
2022-11-02T02:09:52.880Z,94.40
2022-11-02T02:12:20.799Z,94.60
2022-11-02T02:14:47.808Z,94.60
2022-11-02T02:17:47.985Z,94.70
2022-11-02T02:20:32.579Z,94.70
2022-11-02T02:23:33.543Z,95.10
2022-11-02T02:26:38.461Z,95.10
2022-11-02T02:29:34.621Z,95.40
2022-11-02T02:34:39.161Z,95.30
2022-11-02T02:37:18.461Z,95.70
2022-11-02T02:39:58.910Z,96.10
2022-11-02T02:42:31.636Z,95.80
2022-11-02T02:45:16.953Z,95.70
2022-11-02T02:47:52.960Z,95.50
2022-11-02T02:50:25.489Z,95.90
2022-11-02T02:52:53.721Z,95.90
2022-11-02T02:55:29.899Z,96.10
2022-11-02T02:58:00.169Z,96.40
2022-11-02T03:00:27.352Z,96.40
2022-11-02T03:03:01.660Z,96.40
2022-11-02T03:05:34.096Z,96.80
2022-11-02T03:08:07.057Z,97.10
2022-11-02T03:10:46.801Z,97.30
2022-11-02T03:13:25.505Z,97.40
2022-11-02T03:16:06.710Z,97.50
2022-11-02T03:18:48.673Z,97.60
2022-11-02T03:21:25.549Z,97.70
2022-11-02T03:24:08.815Z,97.50
2022-11-02T03:27:05.808Z,97.60
2022-11-02T03:30:08.749Z,98.10
2022-11-02T03:32:59.576Z,98.00
2022-11-02T03:35:37.052Z,97.70
2022-11-02T03:38:38.480Z,97.60
2022-11-02T03:41:06.924Z,97.60
2022-11-02T03:43:37.190Z,97.40
2022-11-02T03:46:08.608Z,97.10
2022-11-02T03:48:41.987Z,97.10
2022-11-02T03:51:13.333Z,97.00
2022-11-02T03:53:44.768Z,96.50
2022-11-02T03:56:37.171Z,96.20
2022-11-02T03:59:04.021Z,96.00
2022-11-02T04:01:32.164Z,96.10
2022-11-02T04:03:59.085Z,96.00
2022-11-02T04:06:26.704Z,95.90
2022-11-02T04:11:39.329Z,96.20
2022-11-02T04:14:25.301Z,96.00
2022-11-02T04:17:11.979Z,95.90
2022-11-02T04:19:38.683Z,96.00
2022-11-02T04:22:23.819Z,95.90
2022-11-02T04:25:09.251Z,96.00
2022-11-02T04:27:36.109Z,96.30
2022-11-02T04:30:03.762Z,96.30
2022-11-02T04:32:49.235Z,96.10
2022-11-02T04:35:16.034Z,96.00
2022-11-02T04:38:02.501Z,96.10
2022-11-02T04:40:29.638Z,96.00
2022-11-02T04:42:56.446Z,95.90
2022-11-02T04:45:23.308Z,95.80
2022-11-02T04:47:50.213Z,95.70
2022-11-02T04:50:17.094Z,95.60
2022-11-02T04:52:43.834Z,95.30
2022-11-02T04:55:10.615Z,95.10
2022-11-02T04:57:37.413Z,95.20
2022-11-02T05:00:07.249Z,95.20
2022-11-02T05:05:01.471Z,95.70
2022-11-02T05:07:28.180Z,95.60
2022-11-02T05:09:54.992Z,95.50
2022-11-02T05:12:25.252Z,95.50
2022-11-02T05:14:54.951Z,95.70
2022-11-02T05:17:21.679Z,95.70
2022-11-02T05:19:48.365Z,95.70
2022-11-02T05:22:15.206Z,95.50
2022-11-02T05:24:41.908Z,95.30
2022-11-02T05:27:10.445Z,95.30
2022-11-02T05:29:37.134Z,95.40
2022-11-02T05:32:04.219Z,95.30
2022-11-02T05:34:30.916Z,95.30
2022-11-02T05:36:57.615Z,95.60
2022-11-02T05:39:24.346Z,95.70
2022-11-02T05:41:51.151Z,95.50
2022-11-02T05:46:45.019Z,95.10
2022-11-02T05:54:06.250Z,94.70
2022-11-02T05:56:33.024Z,94.50
2022-11-02T05:58:59.731Z,94.50
2022-11-02T06:01:26.667Z,94.40
2022-11-02T06:03:54.482Z,94.30
2022-11-02T06:06:21.425Z,94.00
2022-11-02T06:08:48.285Z,94.10
2022-11-02T06:11:15.704Z,93.60
2022-11-02T06:13:43.256Z,93.40
2022-11-02T06:16:12.106Z,93.50
2022-11-02T06:18:39.438Z,93.40
2022-11-02T06:21:06.785Z,93.40
2022-11-02T06:23:34.058Z,93.50
2022-11-02T06:26:01.807Z,93.50
2022-11-02T06:28:29.590Z,93.00
2022-11-02T06:30:56.949Z,93.50
2022-11-02T06:33:23.895Z,93.00
2022-11-02T06:35:55.070Z,93.00
2022-11-02T06:38:22.454Z,92.50
2022-11-02T06:41:00.223Z,92.70
2022-11-02T06:43:26.927Z,92.70
2022-11-02T06:45:58.240Z,92.90
2022-11-02T06:48:31.298Z,92.30
2022-11-02T06:51:01.874Z,92.10
2022-11-02T06:53:28.654Z,92.70
2022-11-02T06:55:56.765Z,92.70
2022-11-02T06:58:24.944Z,92.10
2022-11-02T07:01:00.762Z,91.70
2022-11-02T07:03:28.352Z,91.90
2022-11-02T07:05:55.180Z,92.00
2022-11-02T07:08:22.717Z,91.80
2022-11-02T07:10:50.138Z,91.70
2022-11-02T07:13:17.069Z,91.40
2022-11-02T07:15:43.920Z,91.40
2022-11-02T07:18:10.655Z,91.30
2022-11-02T07:20:37.716Z,91.20
2022-11-02T07:23:05.860Z,90.90
2022-11-02T07:25:33.778Z,90.80
2022-11-02T07:28:02.128Z,91.10
2022-11-02T07:30:30.575Z,91.20
2022-11-02T07:32:57.484Z,90.90
2022-11-02T07:35:24.223Z,90.50
2022-11-02T07:37:58.539Z,90.80
2022-11-02T07:40:25.668Z,90.50
2022-11-02T07:42:54.074Z,90.10
2022-11-02T07:45:22.160Z,90.30
2022-11-02T07:47:52.173Z,89.90
2022-11-02T07:50:21.518Z,90.10
2022-11-02T07:52:53.400Z,90.00
2022-11-02T07:55:25.462Z,89.50
2022-11-02T07:58:00.179Z,89.40
2022-11-02T08:00:28.975Z,87.90
2022-11-02T08:03:00.240Z,87.80
2022-11-02T08:05:29.021Z,88.10
2022-11-02T08:08:18.793Z,87.90
2022-11-02T08:10:47.079Z,85.80
2022-11-02T08:13:16.966Z,86.40
2022-11-02T08:18:25.032Z,88.00
2022-11-02T08:20:52.538Z,88.10
2022-11-02T08:23:20.951Z,87.80
2022-11-02T08:25:49.864Z,87.70
2022-11-02T08:28:20.316Z,88.10
2022-11-02T08:30:47.107Z,87.60
2022-11-02T08:33:15.966Z,87.50
2022-11-02T08:35:44.050Z,87.40
2022-11-02T08:38:11.632Z,87.30
2022-11-02T08:40:38.536Z,86.00
2022-11-02T08:43:08.110Z,86.40
2022-11-02T08:46:08.452Z,87.30
2022-11-02T08:48:23.208Z,86.90
2022-11-02T08:50:50.285Z,86.40
2022-11-02T08:53:17.386Z,86.00
2022-11-02T08:55:44.128Z,85.70
2022-11-02T08:58:11.445Z,85.60
2022-11-02T09:00:38.305Z,85.90
2022-11-02T09:03:13.649Z,86.00
2022-11-02T09:05:43.391Z,85.90
2022-11-02T09:08:13.944Z,86.00
2022-11-02T09:13:11.178Z,86.20
2022-11-02T09:15:38.428Z,86.20
2022-11-02T09:18:06.591Z,85.20
2022-11-02T09:20:34.629Z,83.50
2022-11-02T09:23:01.408Z,83.40
2022-11-02T09:25:28.781Z,82.20
2022-11-02T09:27:57.074Z,81.60
2022-11-02T09:30:25.092Z,82.50
2022-11-02T09:32:55.777Z,83.00
2022-11-02T09:35:23.194Z,82.30
2022-11-02T09:37:51.117Z,80.80
2022-11-02T09:40:38.204Z,81.20
2022-11-02T09:43:42.640Z,82.20
2022-11-02T09:46:27.906Z,82.30
2022-11-02T09:48:59.895Z,82.10
2022-11-02T09:51:56.847Z,82.10
2022-11-02T09:54:31.731Z,81.70
2022-11-02T09:57:05.229Z,81.70
2022-11-02T09:59:32.893Z,82.40
2022-11-02T10:01:59.774Z,82.40
2022-11-02T10:04:59.059Z,81.70
2022-11-02T10:07:31.715Z,81.20
2022-11-02T10:10:25.112Z,80.70
2022-11-02T10:13:19.759Z,81.90
2022-11-02T10:15:52.618Z,81.90
2022-11-02T10:18:24.227Z,82.70
2022-11-02T10:21:08.265Z,82.80
2022-11-02T10:23:47.435Z,83.00
2022-11-02T10:26:24.948Z,83.10
2022-11-02T10:29:16.048Z,83.20
2022-11-02T10:31:43.291Z,82.60
2022-11-02T10:34:19.913Z,82.70
2022-11-02T10:37:09.847Z,82.20
2022-11-02T10:40:13.875Z,82.40
2022-11-02T10:42:56.644Z,82.50
2022-11-02T10:45:49.609Z,82.80
2022-11-02T10:48:37.917Z,82.50
2022-11-02T10:51:13.104Z,83.10
2022-11-02T10:53:48.371Z,83.40
2022-11-02T10:56:33.910Z,82.20
2022-11-02T10:59:13.584Z,80.80
2022-11-02T11:02:07.051Z,79.90
2022-11-02T11:04:34.826Z,80.20
2022-11-02T11:07:26.033Z,80.50
2022-11-02T11:09:57.627Z,80.80
2022-11-02T11:12:37.676Z,81.90
2022-11-02T11:20:42.660Z,83.10
2022-11-02T11:23:20.782Z,83.30
2022-11-02T11:25:58.249Z,83.30
2022-11-02T11:28:28.249Z,81.30
2022-11-02T11:31:08.929Z,81.10
2022-11-02T11:33:54.914Z,78.30
2022-11-02T11:36:39.881Z,78.00
2022-11-02T11:39:27.449Z,76.90
2022-11-02T11:41:54.430Z,76.60
2022-11-02T11:44:22.502Z,76.80
2022-11-02T11:46:53.853Z,77.20
2022-11-02T11:49:36.038Z,77.90
2022-11-02T11:52:20.165Z,76.70
2022-11-02T11:54:55.432Z,76.60
2022-11-02T11:57:34.076Z,76.60
2022-11-02T12:00:04.988Z,76.40
2022-11-02T12:02:42.977Z,76.00
2022-11-02T12:05:17.549Z,75.00
2022-11-02T12:07:58.476Z,74.70
2022-11-02T12:10:30.811Z,73.30
2022-11-02T12:13:25.420Z,75.20
2022-11-02T12:16:11.886Z,75.60
2022-11-02T12:18:44.879Z,76.10
2022-11-02T12:21:23.691Z,76.30
2022-11-02T12:24:23.830Z,77.00
2022-11-02T12:27:02.454Z,77.00
2022-11-02T12:29:50.737Z,75.90
2022-11-02T12:32:34.679Z,74.70
2022-11-02T12:35:33.800Z,73.30
2022-11-02T12:38:20.933Z,71.80
2022-11-02T12:41:03.192Z,72.20
2022-11-02T12:43:48.089Z,71.50
2022-11-02T12:46:23.945Z,71.80
2022-11-02T12:49:12.521Z,73.40
2022-11-02T12:51:45.663Z,74.30
2022-11-02T12:54:21.254Z,74.40
2022-11-02T12:56:50.766Z,74.10
2022-11-02T12:59:27.943Z,74.30
2022-11-02T13:02:19.737Z,74.10
2022-11-02T13:04:56.161Z,73.90
2022-11-02T13:07:52.840Z,73.80
2022-11-02T13:10:29.536Z,72.90
2022-11-02T13:12:59.886Z,72.90
2022-11-02T13:15:29.994Z,72.90
2022-11-02T13:18:03.822Z,72.70
2022-11-02T13:20:36.277Z,72.70
2022-11-02T13:23:34.320Z,72.20
2022-11-02T13:26:15.347Z,71.80
2022-11-02T13:28:45.803Z,71.20
2022-11-02T13:31:18.140Z,71.90
2022-11-02T13:33:51.382Z,71.90
2022-11-02T13:36:18.637Z,72.50
2022-11-02T13:38:57.686Z,71.90
2022-11-02T13:41:37.594Z,71.80
2022-11-02T13:44:38.401Z,72.60
2022-11-02T13:47:16.992Z,71.70
2022-11-02T13:49:48.814Z,71.50
2022-11-02T13:52:26.364Z,71.20
2022-11-02T13:57:34.731Z,71.10
2022-11-02T14:00:04.211Z,71.20
2022-11-02T14:02:37.298Z,70.80
2022-11-02T14:05:04.616Z,70.90
2022-11-02T14:07:38.812Z,70.20
2022-11-02T14:10:14.516Z,70.90
2022-11-02T14:12:48.850Z,70.90
2022-11-02T14:17:55.108Z,72.30
2022-11-02T14:20:37.371Z,72.40
2022-11-02T14:23:10.308Z,73.10
2022-11-02T14:25:47.483Z,73.10
2022-11-02T14:28:20.240Z,73.50
2022-11-02T14:30:49.070Z,73.80
2022-11-02T14:33:44.629Z,73.70
2022-11-02T14:36:17.294Z,74.40
2022-11-02T14:39:07.377Z,74.80
2022-11-02T14:41:51.799Z,74.80
2022-11-02T14:44:30.564Z,74.80
2022-11-02T14:47:05.748Z,74.70
2022-11-02T14:49:35.815Z,75.50
2022-11-02T14:52:32.039Z,76.10
2022-11-02T14:55:09.600Z,76.10
2022-11-02T14:57:42.739Z,76.80
2022-11-02T15:00:25.015Z,76.70
2022-11-02T15:02:55.321Z,76.20
2022-11-02T15:05:33.982Z,76.40
2022-11-02T15:08:07.856Z,76.30
2022-11-02T15:10:42.684Z,77.30
2022-11-02T15:13:18.646Z,77.50
2022-11-02T15:16:08.330Z,77.30
2022-11-02T15:18:37.294Z,77.70
2022-11-02T15:21:10.111Z,78.50
2022-11-02T15:24:04.541Z,78.60
2022-11-02T15:26:55.712Z,79.10
2022-11-02T15:29:32.865Z,78.30
2022-11-02T15:32:01.141Z,78.50
2022-11-02T15:34:42.418Z,78.50
2022-11-02T15:37:37.392Z,78.80
2022-11-02T15:40:21.314Z,78.90
2022-11-02T15:43:30.988Z,78.70
2022-11-02T15:46:06.675Z,79.60
2022-11-02T15:48:41.974Z,80.10
2022-11-02T15:51:33.917Z,81.00
2022-11-02T15:54:06.778Z,81.30
2022-11-02T15:56:46.418Z,81.10
2022-11-02T15:59:31.285Z,81.40
2022-11-02T16:02:23.025Z,81.20
2022-11-02T16:04:53.124Z,81.40
2022-11-02T16:07:20.900Z,81.80
2022-11-02T16:09:48.161Z,82.10
2022-11-02T16:12:20.421Z,81.80
2022-11-02T16:15:04.263Z,81.80
2022-11-02T16:17:32.420Z,82.30
2022-11-02T16:20:22.304Z,82.40
2022-11-02T16:22:54.735Z,82.50
2022-11-02T16:25:35.281Z,83.00
2022-11-02T16:28:26.798Z,83.50
2022-11-02T16:31:18.115Z,83.20
2022-11-02T16:33:56.815Z,83.40
2022-11-02T16:36:24.959Z,83.20
2022-11-02T16:38:56.399Z,83.00
2022-11-02T16:41:26.206Z,83.20
2022-11-02T16:43:54.196Z,83.50
2022-11-02T16:46:31.292Z,83.90
2022-11-02T16:49:11.922Z,84.10
2022-11-02T16:51:39.658Z,84.10
2022-11-02T16:54:34.550Z,84.90
2022-11-02T16:57:23.494Z,85.00
2022-11-02T17:00:02.037Z,85.40
2022-11-02T17:02:32.121Z,85.50
2022-11-02T17:05:04.363Z,85.60
2022-11-02T17:07:38.746Z,85.30
2022-11-02T17:10:07.259Z,85.50
2022-11-02T17:12:43.708Z,86.00
2022-11-02T17:15:16.649Z,86.60
2022-11-02T17:17:44.007Z,86.10
2022-11-02T17:20:11.585Z,86.30
2022-11-02T17:22:53.250Z,86.70
2022-11-02T17:25:35.635Z,87.10
2022-11-02T17:28:24.017Z,86.90
2022-11-02T17:30:52.887Z,87.30
2022-11-02T17:33:28.935Z,87.20
2022-11-02T17:36:03.374Z,87.10
2022-11-02T17:38:30.362Z,87.20
2022-11-02T17:41:00.035Z,87.50
2022-11-02T17:43:27.126Z,87.50
2022-11-02T17:46:00.852Z,87.30
2022-11-02T17:48:31.288Z,88.00
2022-11-02T17:51:01.659Z,87.90
2022-11-02T17:53:28.627Z,88.20
2022-11-02T17:55:56.223Z,88.10
2022-11-02T17:58:23.041Z,87.80
2022-11-02T18:00:49.960Z,87.60
2022-11-02T18:03:20.182Z,87.60
2022-11-02T18:05:50.137Z,87.70
2022-11-02T18:08:19.269Z,88.20
2022-11-02T18:10:47.742Z,87.50
2022-11-02T18:13:18.048Z,87.50
2022-11-02T18:15:45.230Z,87.70
2022-11-02T18:18:12.161Z,87.60
2022-11-02T18:20:41.803Z,87.10
2022-11-02T18:23:15.570Z,86.40
2022-11-02T18:25:43.206Z,87.30
2022-11-02T18:28:09.994Z,87.30
2022-11-02T18:33:05.231Z,87.70
2022-11-02T18:38:01.315Z,88.60
2022-11-02T18:43:02.319Z,89.40
2022-11-02T18:48:01.047Z,89.90
2022-11-02T18:50:28.019Z,89.40
2022-11-02T18:52:54.748Z,89.30
2022-11-02T18:57:50.843Z,89.10
2022-11-02T19:00:18.133Z,89.30
2022-11-02T19:02:44.930Z,89.60
2022-11-02T19:05:30.132Z,89.10
2022-11-02T19:08:18.891Z,88.60
2022-11-02T19:10:47.820Z,88.20
2022-11-02T19:13:14.992Z,88.10
2022-11-02T19:18:10.028Z,87.30
2022-11-02T19:20:36.808Z,87.00
2022-11-02T19:23:03.596Z,86.60
2022-11-02T19:25:30.474Z,86.80
2022-11-02T19:27:57.272Z,86.50
2022-11-02T19:32:51.240Z,86.20
2022-11-02T19:35:18.079Z,86.30
2022-11-02T19:37:44.829Z,86.40
2022-11-02T19:40:12.023Z,86.80
2022-11-02T19:42:39.832Z,86.90
2022-11-02T19:45:07.060Z,86.80
2022-11-02T19:47:34.435Z,87.00
2022-11-02T19:50:01.268Z,87.30
2022-11-02T19:52:28.063Z,87.70
2022-11-02T19:54:54.964Z,87.60
2022-11-02T19:57:21.768Z,87.90
2022-11-02T20:02:16.016Z,88.20
2022-11-02T20:04:44.294Z,88.70
2022-11-02T20:07:11.483Z,89.10
2022-11-02T20:09:38.317Z,89.00
2022-11-02T20:12:07.504Z,89.10
2022-11-02T20:14:36.381Z,89.60
2022-11-02T20:17:29.506Z,89.20
2022-11-02T20:19:50.034Z,89.40
2022-11-02T20:22:18.431Z,89.20
2022-11-02T20:24:45.173Z,89.40
2022-11-02T20:27:13.917Z,89.30
2022-11-02T20:32:10.257Z,89.80
2022-11-02T20:37:05.150Z,89.90
2022-11-02T20:39:31.981Z,90.20
2022-11-02T20:41:58.757Z,89.70
2022-11-02T20:44:25.526Z,89.70
2022-11-02T20:46:53.567Z,89.60
2022-11-02T20:49:36.448Z,90.10
2022-11-02T20:52:09.602Z,90.50
2022-11-02T20:54:36.448Z,90.40
2022-11-02T20:59:30.350Z,90.10
2022-11-02T21:01:57.394Z,90.20
2022-11-02T21:04:24.349Z,90.30
2022-11-02T21:06:51.213Z,90.10
2022-11-02T21:09:18.953Z,89.90
2022-11-02T21:12:04.345Z,89.80
2022-11-02T21:14:31.161Z,90.10
2022-11-02T21:16:57.903Z,89.80
2022-11-02T21:21:56.715Z,89.70
2022-11-02T21:24:26.371Z,89.70
2022-11-02T21:29:21.214Z,90.70
2022-11-02T21:31:48.200Z,90.20
2022-11-02T21:34:15.044Z,90.20
2022-11-02T21:36:41.772Z,90.00
2022-11-02T21:39:08.618Z,90.00
2022-11-02T21:41:39.035Z,90.40
2022-11-02T21:44:07.115Z,90.00
2022-11-02T21:46:33.953Z,90.00
2022-11-02T21:49:01.213Z,90.10
2022-11-02T21:51:28.595Z,90.00
2022-11-02T21:53:56.708Z,89.80
2022-11-02T21:56:30.627Z,89.50
2022-11-02T21:58:57.697Z,89.60
2022-11-02T22:01:44.998Z,89.80
2022-11-02T22:04:24.856Z,89.40
2022-11-02T22:06:52.655Z,89.40
2022-11-02T22:09:19.487Z,89.70
2022-11-02T22:14:13.798Z,89.80
2022-11-02T22:16:42.523Z,89.70
2022-11-02T22:19:14.074Z,90.00
2022-11-02T22:21:45.149Z,89.70
2022-11-02T22:24:12.648Z,89.80
2022-11-02T22:26:40.543Z,89.60
2022-11-02T22:29:08.599Z,89.60
2022-11-02T22:31:45.128Z,89.30
2022-11-02T22:34:13.782Z,89.30
2022-11-02T22:36:43.052Z,89.40
2022-11-02T22:39:12.686Z,89.30
2022-11-02T22:41:47.126Z,88.90
2022-11-02T22:44:16.004Z,88.90
2022-11-02T22:46:50.680Z,88.90
2022-11-02T22:49:19.032Z,89.10
2022-11-02T22:51:48.843Z,89.10
2022-11-02T22:54:18.230Z,88.80
2022-11-02T22:56:47.078Z,88.70
2022-11-02T22:59:14.271Z,88.70
2022-11-02T23:01:41.565Z,88.30
2022-11-02T23:04:10.246Z,88.40
2022-11-02T23:06:37.007Z,88.20
2022-11-02T23:09:04.680Z,88.00
2022-11-02T23:11:35.431Z,87.70
2022-11-02T23:14:13.818Z,87.20
2022-11-02T23:16:43.137Z,87.30
2022-11-02T23:19:23.585Z,87.40
2022-11-02T23:22:15.287Z,87.40
2022-11-02T23:25:13.487Z,86.90
2022-11-02T23:28:02.281Z,87.20
2022-11-02T23:30:53.436Z,87.10
2022-11-02T23:33:21.162Z,86.60
2022-11-02T23:36:06.927Z,86.80
2022-11-02T23:41:20.068Z,86.50
2022-11-02T23:43:47.566Z,86.50
2022-11-02T23:46:15.139Z,86.20
2022-11-02T23:48:42.590Z,86.50
2022-11-02T23:51:30.854Z,86.50
2022-11-02T23:54:16.354Z,86.70
2022-11-02T23:56:43.527Z,86.70
2022-11-02T23:59:14.837Z,86.20
